createdAt,value
2018-09-01T00:00:51.053Z,72.94
2018-09-01T00:03:22.092Z,73.84
2018-09-01T00:05:51.564Z,74.00
2018-09-01T00:08:22.170Z,72.63
2018-09-01T00:10:52.021Z,72.14
2018-09-01T00:13:22.111Z,71.65
2018-09-01T00:15:51.542Z,73.22
2018-09-01T00:18:21.617Z,73.16
2018-09-01T00:20:52.144Z,72.94
2018-09-01T00:23:22.494Z,74.20
2018-09-01T00:25:52.313Z,72.72
2018-09-01T00:28:22.471Z,72.53
2018-09-01T00:30:51.901Z,73.29
2018-09-01T00:33:21.332Z,72.99
2018-09-01T00:35:50.765Z,72.61
2018-09-01T00:38:25.483Z,72.65
2018-09-01T00:40:55.170Z,72.91
2018-09-01T00:43:24.660Z,72.96
2018-09-01T00:45:54.158Z,73.38
2018-09-01T00:48:23.674Z,73.28
2018-09-01T00:50:53.143Z,73.62
2018-09-01T00:53:22.615Z,73.05
2018-09-01T00:55:53.407Z,73.21
2018-09-01T00:58:22.859Z,72.87
2018-09-01T01:00:52.292Z,73.43
2018-09-01T01:03:21.734Z,73.57
2018-09-01T01:05:52.456Z,72.97
2018-09-01T01:08:21.957Z,73.03
2018-09-01T01:10:51.366Z,73.91
2018-09-01T01:13:20.774Z,73.64
2018-09-01T01:15:50.464Z,73.25
2018-09-01T01:18:22.367Z,72.65
2018-09-01T01:20:51.827Z,73.17
2018-09-01T01:23:21.298Z,72.65
2018-09-01T01:25:50.746Z,73.37
2018-09-01T01:28:21.398Z,72.84
2018-09-01T01:30:50.864Z,73.49
2018-09-01T01:33:20.311Z,72.86
2018-09-01T01:35:51.068Z,72.70
2018-09-01T01:38:20.555Z,73.37
2018-09-01T01:40:50.006Z,73.36
2018-09-01T01:43:20.150Z,73.58
2018-09-01T01:45:49.555Z,72.80
2018-09-01T01:48:19.166Z,73.78
2018-09-01T01:50:48.594Z,73.03
2018-09-01T01:53:18.491Z,73.59
2018-09-01T01:55:47.936Z,73.96
2018-09-01T01:58:17.947Z,73.69
2018-09-01T02:00:47.372Z,73.95
2018-09-01T02:03:16.802Z,73.63
2018-09-01T02:05:46.382Z,74.13
2018-09-01T02:08:16.283Z,74.39
2018-09-01T02:10:45.708Z,74.66
2018-09-01T02:13:15.168Z,73.72
2018-09-01T02:15:45.639Z,73.71
2018-09-01T02:18:16.042Z,74.11
2018-09-01T02:20:49.139Z,73.63
2018-09-01T02:23:21.898Z,74.29
2018-09-01T02:25:51.787Z,74.68
2018-09-01T02:28:21.303Z,73.21
2018-09-01T02:30:50.847Z,73.87
2018-09-01T02:33:20.303Z,74.20
2018-09-01T02:35:49.730Z,73.79
2018-09-01T02:38:19.164Z,73.55
2018-09-01T02:40:48.990Z,74.24
2018-09-01T02:43:18.447Z,74.16
2018-09-01T02:45:47.886Z,74.56
2018-09-01T02:48:17.727Z,74.74
2018-09-01T02:50:47.203Z,74.77
2018-09-01T02:53:16.854Z,75.01
2018-09-01T02:55:46.842Z,74.88
2018-09-01T02:58:16.864Z,74.99
2018-09-01T03:00:46.419Z,75.10
2018-09-01T03:03:15.947Z,75.80
2018-09-01T03:05:46.503Z,74.71
2018-09-01T03:08:16.042Z,74.57
2018-09-01T03:10:45.484Z,75.33
2018-09-01T03:13:15.420Z,74.77
2018-09-01T03:15:45.479Z,74.14
2018-09-01T03:18:14.922Z,73.36
2018-09-01T03:20:44.558Z,73.58
2018-09-01T03:23:14.503Z,73.45
2018-09-01T03:25:44.131Z,73.98
2018-09-01T03:28:13.658Z,74.09
2018-09-01T03:30:43.121Z,74.12
2018-09-01T03:33:12.583Z,73.52
2018-09-01T03:35:42.036Z,74.57
2018-09-01T03:38:11.910Z,74.96
2018-09-01T03:40:41.382Z,74.00
2018-09-01T03:43:10.788Z,73.50
2018-09-01T03:45:40.236Z,73.26
2018-09-01T03:48:09.792Z,73.59
2018-09-01T03:50:39.253Z,73.60
2018-09-01T03:53:09.790Z,74.52
2018-09-01T03:55:40.631Z,74.34
2018-09-01T03:58:10.222Z,74.70
2018-09-01T04:00:39.799Z,74.92
2018-09-01T04:03:09.305Z,74.17
2018-09-01T04:05:41.710Z,74.50
2018-09-01T04:08:12.927Z,74.45
2018-09-01T04:10:42.847Z,73.89
2018-09-01T04:13:12.332Z,74.69
2018-09-01T04:15:41.768Z,74.69
2018-09-01T04:18:11.625Z,74.98
2018-09-01T04:20:41.070Z,74.80
2018-09-01T04:23:10.503Z,75.54
2018-09-01T04:28:39.609Z,76.06
2018-09-01T04:31:09.385Z,76.09
2018-09-01T04:33:38.835Z,76.44
2018-09-01T04:36:08.282Z,76.07
2018-09-01T04:38:37.691Z,76.58
2018-09-01T04:41:07.343Z,76.21
2018-09-01T04:43:36.906Z,76.32
2018-09-01T04:46:07.571Z,76.23
2018-09-01T04:48:37.030Z,76.66
2018-09-01T04:51:06.886Z,76.98
2018-09-01T04:53:36.330Z,76.73
2018-09-01T04:56:06.333Z,76.12
2018-09-01T04:58:35.799Z,76.53
2018-09-01T05:01:05.315Z,76.97
2018-09-01T05:03:35.238Z,75.47
2018-09-01T05:06:04.690Z,75.72
2018-09-01T05:08:34.164Z,75.69
2018-09-01T05:11:03.668Z,75.80
2018-09-01T05:13:33.167Z,75.49
2018-09-01T05:16:03.264Z,75.94
2018-09-01T05:18:32.935Z,75.95
2018-09-01T05:21:02.386Z,76.22
2018-09-01T05:23:31.883Z,76.43
2018-09-01T05:26:01.764Z,76.46
2018-09-01T05:28:31.372Z,76.82
2018-09-01T05:31:01.804Z,76.23
2018-09-01T05:33:31.898Z,75.73
2018-09-01T05:36:01.372Z,76.80
2018-09-01T05:38:30.818Z,75.94
2018-09-01T05:41:00.275Z,75.48
2018-09-01T05:43:30.318Z,75.83
2018-09-01T05:45:59.797Z,76.00
2018-09-01T05:48:29.218Z,75.25
2018-09-01T05:50:58.974Z,75.22
2018-09-01T05:53:28.428Z,75.32
2018-09-01T05:55:58.168Z,74.71
2018-09-01T05:58:28.153Z,74.33
2018-09-01T06:00:57.763Z,75.45
2018-09-01T06:03:27.354Z,74.72
2018-09-01T06:05:56.870Z,76.04
2018-09-01T06:08:26.328Z,76.28
2018-09-01T06:10:55.804Z,75.96
2018-09-01T06:13:25.610Z,75.47
2018-09-01T06:15:55.602Z,75.33
2018-09-01T06:18:27.919Z,76.19
2018-09-01T06:20:57.948Z,76.63
2018-09-01T06:23:29.070Z,76.17
2018-09-01T06:25:58.529Z,75.98
2018-09-01T06:28:37.227Z,75.60
2018-09-01T06:31:13.360Z,75.92
2018-09-01T06:33:43.795Z,76.31
2018-09-01T06:36:13.304Z,75.82
2018-09-01T06:38:43.467Z,75.96
2018-09-01T06:41:12.950Z,76.72
2018-09-01T06:43:42.503Z,75.36
2018-09-01T06:46:11.979Z,76.12
2018-09-01T06:48:41.655Z,76.13
2018-09-01T06:51:11.981Z,75.94
2018-09-01T06:53:42.020Z,75.72
2018-09-01T06:56:13.519Z,75.99
2018-09-01T06:58:43.588Z,74.65
2018-09-01T07:01:14.963Z,75.47
2018-09-01T07:03:44.384Z,75.73
2018-09-01T07:06:15.867Z,73.89
2018-09-01T07:08:46.357Z,74.15
2018-09-01T07:11:18.131Z,74.68
2018-09-01T07:13:48.818Z,74.61
2018-09-01T07:16:22.174Z,73.40
2018-09-01T07:18:52.389Z,74.25
2018-09-01T07:21:23.530Z,74.20
2018-09-01T07:23:58.775Z,74.41
2018-09-01T07:26:30.202Z,74.72
2018-09-01T07:29:00.170Z,74.15
2018-09-01T07:31:31.279Z,74.56
2018-09-01T07:34:01.374Z,73.35
2018-09-01T07:36:31.722Z,72.36
2018-09-01T07:39:03.324Z,73.90
2018-09-01T07:47:46.507Z,70.71
2018-09-01T07:53:13.527Z,70.50
2018-09-01T07:55:43.199Z,71.12
2018-09-01T07:58:13.902Z,70.52
2018-09-01T08:00:44.622Z,69.79
2018-09-01T08:03:14.076Z,71.88
2018-09-01T08:05:45.331Z,72.09
2018-09-01T08:08:14.835Z,70.93
2018-09-01T08:10:44.291Z,70.23
2018-09-01T08:13:14.336Z,70.35
2018-09-01T08:15:45.135Z,69.33
2018-09-01T08:18:18.520Z,70.93
2018-09-01T08:20:49.388Z,71.31
2018-09-01T08:23:18.826Z,70.82
2018-09-01T08:25:50.255Z,70.42
2018-09-01T08:28:20.543Z,69.91
2018-09-01T08:30:51.996Z,69.47
2018-09-01T08:33:23.990Z,69.36
2018-09-01T08:35:54.231Z,70.25
2018-09-01T08:38:25.707Z,69.49
2018-09-01T08:40:55.127Z,68.36
2018-09-01T08:43:25.142Z,69.30
2018-09-01T08:45:55.555Z,69.83
2018-09-01T08:48:27.752Z,69.04
2018-09-01T08:50:58.578Z,68.08
2018-09-01T08:53:28.218Z,68.52
2018-09-01T08:55:59.131Z,68.34
2018-09-01T08:58:29.152Z,67.63
2018-09-01T09:01:00.168Z,67.91
2018-09-01T09:03:30.302Z,67.53
2018-09-01T09:06:00.491Z,66.15
2018-09-01T09:08:30.179Z,67.64
2018-09-01T09:11:00.732Z,66.98
2018-09-01T09:13:30.436Z,66.62
2018-09-01T09:16:03.315Z,67.65
2018-09-01T09:18:36.520Z,65.79
2018-09-01T09:21:07.565Z,65.24
2018-09-01T09:23:38.501Z,66.00
2018-09-01T09:26:08.099Z,65.03
2018-09-01T09:28:37.746Z,65.94
2018-09-01T09:31:07.886Z,65.75
2018-09-01T09:33:37.888Z,66.16
2018-09-01T09:36:08.366Z,64.14
2018-09-01T09:38:40.349Z,64.82
2018-09-01T09:41:10.408Z,63.60
2018-09-01T09:43:40.406Z,65.28
2018-09-01T09:46:09.848Z,63.92
2018-09-01T09:48:40.197Z,64.61
2018-09-01T09:51:11.188Z,64.58
2018-09-01T09:53:41.099Z,65.61
2018-09-01T09:56:13.800Z,64.68
2018-09-01T09:58:44.873Z,64.37
2018-09-01T10:01:20.837Z,64.89
2018-09-01T10:03:50.742Z,65.04
2018-09-01T10:06:20.518Z,65.13
2018-09-01T10:09:06.566Z,63.42
2018-09-01T10:11:38.795Z,64.29
2018-09-01T10:14:09.055Z,65.45
2018-09-01T10:16:40.392Z,64.51
2018-09-01T10:19:11.152Z,64.67
2018-09-01T10:21:42.636Z,64.75
2018-09-01T10:24:12.591Z,65.32
2018-09-01T10:26:42.502Z,65.59
2018-09-01T10:29:13.014Z,64.84
2018-09-01T10:31:43.157Z,65.37
2018-09-01T10:34:12.646Z,65.26
2018-09-01T10:36:45.142Z,65.76
2018-09-01T10:39:15.793Z,66.37
2018-09-01T10:41:48.146Z,65.64
2018-09-01T10:44:21.407Z,65.48
2018-09-01T10:46:50.883Z,66.84
2018-09-01T10:49:21.190Z,66.04
2018-09-01T10:51:54.988Z,66.57
2018-09-01T10:54:25.258Z,66.55
2018-09-01T10:56:54.730Z,67.45
2018-09-01T10:59:24.253Z,66.05
2018-09-01T11:01:54.385Z,65.65
2018-09-01T11:04:24.093Z,67.15
2018-09-01T11:06:54.642Z,67.63
2018-09-01T11:09:26.813Z,69.22
2018-09-01T11:11:58.607Z,67.92
2018-09-01T11:14:29.015Z,68.26
2018-09-01T11:16:59.144Z,68.05
2018-09-01T11:19:28.638Z,69.00
2018-09-01T11:21:58.132Z,68.03
2018-09-01T11:24:29.067Z,68.26
2018-09-01T11:26:58.817Z,68.02
2018-09-01T11:29:29.659Z,67.71
2018-09-01T11:32:00.107Z,66.96
2018-09-01T11:34:35.448Z,67.44
2018-09-01T11:37:06.838Z,67.24
2018-09-01T11:39:36.323Z,67.39
2018-09-01T11:42:08.224Z,67.81
2018-09-01T11:44:38.777Z,67.23
2018-09-01T11:47:10.079Z,66.93
2018-09-01T11:49:39.920Z,66.52
2018-09-01T11:52:09.492Z,66.89
2018-09-01T11:54:39.536Z,66.50
2018-09-01T11:57:10.990Z,66.22
2018-09-01T11:59:41.755Z,67.92
2018-09-01T12:02:16.385Z,68.05
2018-09-01T12:04:46.534Z,67.31
2018-09-01T12:07:16.563Z,66.62
2018-09-01T12:09:47.695Z,66.85
2018-09-01T12:12:18.859Z,66.15
2018-09-01T12:14:48.418Z,66.20
2018-09-01T12:17:18.424Z,66.50
2018-09-01T12:19:49.374Z,65.45
2018-09-01T12:22:20.631Z,65.92
2018-09-01T12:24:51.058Z,66.26
2018-09-01T12:27:25.533Z,65.83
2018-09-01T12:29:55.029Z,64.78
2018-09-01T12:32:26.056Z,65.25
2018-09-01T12:34:56.516Z,64.59
2018-09-01T12:37:27.259Z,65.98
2018-09-01T12:39:57.569Z,64.39
2018-09-01T12:42:27.015Z,66.17
2018-09-01T12:45:07.458Z,65.80
2018-09-01T12:48:08.570Z,65.58
2018-09-01T12:50:40.578Z,66.04
2018-09-01T12:53:11.541Z,66.41
2018-09-01T12:55:42.033Z,66.21
2018-09-01T12:58:13.671Z,66.85
2018-09-01T13:00:43.606Z,67.18
2018-09-01T13:03:17.189Z,66.21
2018-09-01T13:05:48.450Z,66.14
2018-09-01T13:08:18.794Z,64.88
2018-09-01T13:10:50.526Z,65.21
2018-09-01T13:13:21.791Z,65.76
2018-09-01T13:15:51.267Z,64.80
2018-09-01T13:18:21.433Z,63.80
2018-09-01T13:20:51.371Z,64.78
2018-09-01T13:23:22.264Z,65.98
2018-09-01T13:25:53.277Z,65.44
2018-09-01T13:28:23.612Z,66.45
2018-09-01T13:30:53.191Z,65.87
2018-09-01T13:33:26.154Z,67.59
2018-09-01T13:35:58.013Z,67.37
2018-09-01T13:38:28.198Z,66.68
2018-09-01T13:40:59.382Z,66.52
2018-09-01T13:43:29.539Z,67.17
2018-09-01T13:45:59.092Z,64.76
2018-09-01T13:48:29.264Z,65.12
2018-09-01T13:50:58.772Z,64.07
2018-09-01T13:53:29.755Z,63.87
2018-09-01T13:56:00.885Z,63.48
2018-09-01T13:58:33.386Z,63.19
2018-09-01T14:01:03.219Z,60.92
2018-09-01T14:03:33.256Z,61.55
2018-09-01T14:06:05.387Z,61.34
2018-09-01T14:08:34.847Z,60.83
2018-09-01T14:11:11.878Z,60.22
2018-09-01T14:13:41.329Z,60.04
2018-09-01T14:16:13.108Z,60.39
2018-09-01T14:18:46.926Z,59.94
2018-09-01T14:21:23.639Z,59.63
2018-09-01T14:23:54.754Z,59.93
2018-09-01T14:26:24.281Z,60.32
2018-09-01T14:28:55.587Z,60.57
2018-09-01T14:31:26.017Z,59.65
2018-09-01T14:33:55.498Z,59.96
2018-09-01T14:36:25.895Z,59.51
2018-09-01T14:38:55.523Z,61.07
2018-09-01T14:41:26.857Z,59.90
2018-09-01T14:43:56.337Z,60.25
2018-09-01T14:46:25.774Z,60.07
2018-09-01T14:48:55.456Z,59.52
2018-09-01T14:51:25.851Z,59.86
2018-09-01T14:53:55.318Z,59.69
2018-09-01T14:56:26.007Z,60.37
2018-09-01T14:58:55.515Z,59.44
2018-09-01T15:01:26.877Z,60.23
2018-09-01T15:03:56.709Z,60.13
2018-09-01T15:06:28.273Z,59.89
2018-09-01T15:09:00.878Z,60.78
2018-09-01T15:11:31.854Z,60.47
2018-09-01T15:14:03.219Z,60.42
2018-09-01T15:16:33.339Z,60.45
2018-09-01T15:19:13.375Z,60.79
2018-09-01T15:21:45.116Z,61.29
2018-09-01T15:24:15.158Z,61.82
2018-09-01T15:26:45.064Z,62.31
2018-09-01T15:29:14.495Z,61.94
2018-09-01T15:31:44.717Z,62.23
2018-09-01T15:34:15.162Z,62.15
2018-09-01T15:36:50.050Z,61.99
2018-09-01T15:39:20.654Z,61.87
2018-09-01T15:41:50.087Z,62.16
2018-09-01T15:44:22.346Z,61.65
2018-09-01T15:46:55.541Z,62.03
2018-09-01T15:49:25.822Z,61.29
2018-09-01T15:51:58.637Z,61.32
2018-09-01T15:54:31.624Z,61.79
2018-09-01T15:57:11.451Z,62.38
2018-09-01T15:59:42.408Z,62.35
2018-09-01T16:02:16.270Z,62.40
2018-09-01T16:04:46.263Z,61.66
2018-09-01T16:07:15.698Z,62.53
2018-09-01T16:09:45.822Z,62.34
2018-09-01T16:12:15.611Z,62.34
2018-09-01T16:14:52.623Z,60.99
2018-09-01T16:17:24.096Z,62.27
2018-09-01T16:19:53.924Z,61.81
2018-09-01T16:22:24.326Z,62.05
2018-09-01T16:24:53.743Z,62.32
2018-09-01T16:27:24.067Z,61.88
2018-09-01T16:29:53.833Z,61.74
2018-09-01T16:32:23.348Z,61.29
2018-09-01T16:34:53.207Z,61.97
2018-09-01T16:37:26.278Z,61.03
2018-09-01T16:39:56.339Z,61.80
2018-09-01T16:42:27.536Z,61.03
2018-09-01T16:45:00.814Z,60.83
2018-09-01T16:47:32.516Z,61.84
2018-09-01T16:50:03.753Z,62.22
2018-09-01T16:52:35.153Z,62.50
2018-09-01T16:55:04.615Z,62.44
2018-09-01T16:57:36.705Z,62.67
2018-09-01T17:00:07.661Z,62.80
2018-09-01T17:02:40.146Z,63.75
2018-09-01T17:05:10.795Z,63.16
2018-09-01T17:07:47.289Z,63.32
2018-09-01T17:10:17.740Z,63.00
2018-09-01T17:12:47.211Z,62.86
2018-09-01T17:15:18.577Z,64.80
2018-09-01T17:17:48.562Z,64.19
2018-09-01T17:20:21.286Z,64.55
2018-09-01T17:22:55.690Z,64.89
2018-09-01T17:25:25.125Z,65.12
2018-09-01T17:27:54.598Z,65.25
2018-09-01T17:30:25.483Z,65.52
2018-09-01T17:32:58.138Z,65.75
2018-09-01T17:35:28.564Z,66.12
2018-09-01T17:37:59.336Z,66.73
2018-09-01T17:40:30.428Z,66.28
2018-09-01T17:43:01.660Z,67.08
2018-09-01T17:45:32.028Z,67.19
2018-09-01T17:48:05.499Z,67.23
2018-09-01T17:53:14.319Z,67.39
2018-09-01T17:55:45.302Z,68.85
2018-09-01T17:58:15.152Z,68.75
2018-09-01T18:00:46.803Z,68.66
2018-09-01T18:03:17.263Z,68.96
2018-09-01T18:05:49.206Z,69.03
2018-09-01T18:08:21.868Z,69.92
2018-09-01T18:10:51.391Z,71.03
2018-09-01T18:13:21.599Z,71.59
2018-09-01T18:15:53.938Z,71.11
2018-09-01T18:18:24.375Z,72.11
2018-09-01T18:20:55.287Z,71.71
2018-09-01T18:23:25.155Z,71.87
2018-09-01T18:25:55.207Z,71.76
2018-09-01T18:28:26.198Z,72.34
2018-09-01T18:30:57.183Z,72.74
2018-09-01T18:33:28.068Z,73.91
2018-09-01T18:35:58.656Z,74.33
2018-09-01T18:38:33.380Z,73.71
2018-09-01T18:41:04.184Z,73.82
2018-09-01T18:43:34.804Z,74.92
2018-09-01T18:46:05.326Z,73.97
2018-09-01T18:48:37.102Z,74.17
2018-09-01T18:51:06.646Z,74.18
2018-09-01T18:53:36.673Z,74.59
2018-09-01T18:56:06.400Z,74.25
2018-09-01T18:58:38.544Z,74.79
2018-09-01T19:04:24.157Z,74.96
2018-09-01T19:07:00.885Z,75.60
2018-09-01T19:09:32.466Z,75.40
2018-09-01T19:12:05.165Z,74.85
2018-09-01T19:14:47.814Z,75.21
2018-09-01T19:17:24.419Z,75.84
2018-09-01T19:20:01.120Z,75.25
2018-09-01T19:22:35.463Z,76.65
2018-09-01T19:25:12.230Z,75.95
2018-09-01T19:27:50.184Z,76.25
2018-09-01T19:30:24.351Z,76.62
2018-09-01T19:32:59.409Z,76.09
2018-09-01T19:35:31.209Z,76.57
2018-09-01T19:38:05.844Z,76.78
2018-09-01T19:40:39.167Z,77.17
2018-09-01T19:43:12.500Z,76.89
2018-09-01T19:45:50.075Z,77.09
2018-09-01T19:48:27.616Z,76.71
2018-09-01T19:51:04.625Z,77.32
2018-09-01T19:53:42.217Z,77.06
2018-09-01T19:56:13.368Z,77.34
2018-09-01T19:58:47.733Z,77.29
2018-09-01T20:01:20.400Z,77.49
2018-09-01T20:03:53.610Z,76.81
2018-09-01T20:06:25.556Z,77.42
2018-09-01T20:09:01.884Z,76.92
2018-09-01T20:11:42.487Z,77.17
2018-09-01T20:14:13.443Z,77.40
2018-09-01T20:16:59.236Z,77.59
2018-09-01T20:19:46.996Z,77.54
2018-09-01T20:22:19.343Z,77.18
2018-09-01T20:24:54.215Z,77.67
2018-09-01T20:27:26.513Z,77.69
2018-09-01T20:29:59.719Z,78.53
2018-09-01T20:32:29.353Z,78.02
2018-09-01T20:35:06.925Z,78.61
2018-09-01T20:37:36.691Z,78.50
2018-09-01T20:40:11.175Z,78.76
2018-09-01T20:42:40.970Z,78.24
2018-09-01T20:45:11.101Z,78.82
2018-09-01T20:47:42.277Z,79.12
2018-09-01T20:50:11.602Z,78.76
2018-09-01T20:52:43.778Z,78.77
2018-09-01T20:55:16.914Z,79.15
2018-09-01T20:57:48.907Z,79.79
2018-09-01T21:00:21.972Z,79.51
2018-09-01T21:02:52.932Z,80.09
2018-09-01T21:05:25.001Z,80.43
2018-09-01T21:07:58.134Z,79.15
2018-09-01T21:10:45.915Z,79.79
2018-09-01T21:13:16.250Z,80.14
2018-09-01T21:15:49.172Z,80.58
2018-09-01T21:18:18.397Z,80.93
2018-09-01T21:20:51.680Z,80.95
2018-09-01T21:23:24.306Z,80.81
2018-09-01T21:25:54.765Z,81.13
2018-09-01T21:28:29.219Z,80.87
2018-09-01T21:31:00.305Z,82.18
2018-09-01T21:33:29.964Z,81.95
2018-09-01T21:35:59.047Z,81.92
2018-09-01T21:39:31.131Z,82.23
2018-09-01T21:42:04.442Z,81.43
2018-09-01T21:44:33.282Z,82.06
2018-09-01T21:47:05.791Z,83.49
2018-09-01T21:49:34.606Z,83.75
2018-09-01T21:52:04.061Z,83.90
2018-09-01T21:54:33.832Z,83.33
2018-09-01T21:57:05.444Z,84.15
2018-09-01T21:59:34.407Z,84.47
2018-09-01T22:02:09.340Z,84.43
2018-09-01T22:04:45.197Z,85.60
2018-09-01T22:07:14.832Z,85.39
2018-09-01T22:09:45.373Z,86.19
2018-09-01T22:12:21.809Z,85.73
2018-09-01T22:14:54.134Z,86.12
2018-09-01T22:17:25.259Z,86.93
2018-09-01T22:19:55.056Z,86.24
2018-09-01T22:22:24.842Z,87.04
2018-09-01T22:24:55.557Z,86.10
2018-09-01T22:27:28.534Z,85.73
2018-09-01T22:29:58.959Z,86.11
2018-09-01T22:32:28.477Z,87.29
2018-09-01T22:34:59.097Z,87.42
2018-09-01T22:37:28.250Z,86.31
2018-09-01T22:39:59.502Z,86.96
2018-09-01T22:42:29.496Z,86.69
2018-09-01T22:44:59.493Z,86.26
2018-09-01T22:47:30.504Z,87.44
2018-09-01T22:50:00.850Z,87.12
2018-09-01T22:52:31.250Z,87.18
2018-09-01T22:55:03.179Z,87.49
2018-09-01T22:57:35.128Z,87.35
2018-09-01T23:00:07.745Z,87.16
2018-09-01T23:02:37.338Z,87.66
2018-09-01T23:05:07.096Z,87.05
2018-09-01T23:07:39.492Z,88.51
2018-09-01T23:10:10.637Z,88.17
2018-09-01T23:12:42.412Z,88.60
2018-09-01T23:15:12.619Z,89.46
2018-09-01T23:17:45.599Z,90.03
2018-09-01T23:20:15.517Z,90.61
2018-09-01T23:22:47.954Z,90.81
2018-09-01T23:25:20.586Z,90.50
2018-09-01T23:27:52.577Z,91.89
2018-09-01T23:30:21.464Z,92.11
2018-09-01T23:32:52.517Z,92.16
2018-09-01T23:35:21.953Z,92.76
2018-09-01T23:37:50.767Z,92.55
2018-09-01T23:40:19.708Z,92.80
2018-09-01T23:42:49.729Z,91.91
2018-09-01T23:45:19.304Z,93.68
2018-09-01T23:47:48.237Z,93.86
2018-09-01T23:50:18.116Z,93.14
2018-09-01T23:52:46.936Z,92.98
2018-09-01T23:55:15.947Z,93.30
2018-09-01T23:57:45.713Z,94.22
